sensor_id;sensor_type;location;lat;lon;timestamp;pressure;altitude;pressure_sealevel;temperature;humidity
65190;BME280;51777;53.570;9.984;2023-06-26T00:02:00;101156.75;;;23.49;100.00
65190;BME280;51777;53.570;9.984;2023-06-26T00:04:25;101161.69;;;23.46;100.00
65190;BME280;51777;53.570;9.984;2023-06-26T00:06:51;101155.22;;;23.41;100.00
65190;BME280;51777;53.570;9.984;2023-06-26T00:09:16;101159.31;;;23.37;100.00
65190;BME280;51777;53.570;9.984;2023-06-26T00:11:42;101151.03;;;23.34;100.00
65190;BME280;51777;53.570;9.984;2023-06-26T00:14:07;101148.03;;;23.30;100.00
65190;BME280;51777;53.570;9.984;2023-06-26T00:16:32;101151.31;;;23.26;100.00
65190;BME280;51777;53.570;9.984;2023-06-26T00:18:58;101148.09;;;23.24;100.00
65190;BME280;51777;53.570;9.984;2023-06-26T00:21:26;101143.47;;;23.19;100.00
65190;BME280;51777;53.570;9.984;2023-06-26T00:23:52;101146.31;;;23.18;100.00
65190;BME280;51777;53.570;9.984;2023-06-26T00:26:18;101147.66;;;23.08;100.00
65190;BME280;51777;53.570;9.984;2023-06-26T00:28:43;101140.78;;;23.07;100.00
65190;BME280;51777;53.570;9.984;2023-06-26T00:31:08;101134.06;;;23.05;100.00
65190;BME280;51777;53.570;9.984;2023-06-26T00:33:34;101135.09;;;23.04;100.00
65190;BME280;51777;53.570;9.984;2023-06-26T00:35:59;101129.25;;;23.02;100.00
65190;BME280;51777;53.570;9.984;2023-06-26T00:38:24;101132.31;;;22.99;100.00
65190;BME280;51777;53.570;9.984;2023-06-26T00:40:50;101130.13;;;22.96;100.00
65190;BME280;51777;53.570;9.984;2023-06-26T00:43:15;101126.28;;;22.92;100.00
65190;BME280;51777;53.570;9.984;2023-06-26T00:45:41;101127.53;;;22.89;100.00
65190;BME280;51777;53.570;9.984;2023-06-26T00:48:06;101125.13;;;22.88;100.00
65190;BME280;51777;53.570;9.984;2023-06-26T00:50:32;101121.47;;;22.89;100.00
65190;BME280;51777;53.570;9.984;2023-06-26T00:52:57;101120.06;;;22.86;100.00
65190;BME280;51777;53.570;9.984;2023-06-26T00:55:26;101113.41;;;22.83;100.00
65190;BME280;51777;53.570;9.984;2023-06-26T00:57:52;101114.81;;;22.79;100.00
65190;BME280;51777;53.570;9.984;2023-06-26T01:00:18;101117.44;;;22.79;100.00
65190;BME280;51777;53.570;9.984;2023-06-26T01:02:43;101115.25;;;22.76;100.00
65190;BME280;51777;53.570;9.984;2023-06-26T01:05:09;101113.19;;;22.78;100.00
65190;BME280;51777;53.570;9.984;2023-06-26T01:07:38;101106.16;;;22.72;100.00
65190;BME280;51777;53.570;9.984;2023-06-26T01:10:05;101107.41;;;22.70;100.00
65190;BME280;51777;53.570;9.984;2023-06-26T01:12:32;101110.84;;;22.70;100.00
65190;BME280;51777;53.570;9.984;2023-06-26T01:14:59;101110.69;;;22.65;100.00
65190;BME280;51777;53.570;9.984;2023-06-26T01:17:26;101102.63;;;22.60;100.00
65190;BME280;51777;53.570;9.984;2023-06-26T01:19:53;101097.75;;;22.57;100.00
65190;BME280;51777;53.570;9.984;2023-06-26T01:22:30;101101.28;;;22.51;100.00
65190;BME280;51777;53.570;9.984;2023-06-26T01:25:41;101096.81;;;22.51;100.00
65190;BME280;51777;53.570;9.984;2023-06-26T01:28:04;101095.41;;;22.49;100.00
65190;BME280;51777;53.570;9.984;2023-06-26T01:30:32;101096.44;;;22.48;100.00
65190;BME280;51777;53.570;9.984;2023-06-26T01:32:58;101091.00;;;22.43;100.00
65190;BME280;51777;53.570;9.984;2023-06-26T01:35:24;101092.59;;;22.44;100.00
65190;BME280;51777;53.570;9.984;2023-06-26T01:37:50;101081.91;;;22.39;100.00
65190;BME280;51777;53.570;9.984;2023-06-26T01:40:15;101078.69;;;22.37;100.00
65190;BME280;51777;53.570;9.984;2023-06-26T01:42:41;101075.88;;;22.32;100.00
65190;BME280;51777;53.570;9.984;2023-06-26T01:45:19;101069.00;;;22.31;100.00
65190;BME280;51777;53.570;9.984;2023-06-26T01:47:51;101067.59;;;22.28;100.00
65190;BME280;51777;53.570;9.984;2023-06-26T01:50:22;101070.09;;;22.23;100.00
65190;BME280;51777;53.570;9.984;2023-06-26T01:53:02;101068.25;;;22.23;100.00
65190;BME280;51777;53.570;9.984;2023-06-26T01:55:36;101059.75;;;22.21;100.00
65190;BME280;51777;53.570;9.984;2023-06-26T01:58:05;101061.19;;;22.17;100.00
65190;BME280;51777;53.570;9.984;2023-06-26T02:00:31;101062.81;;;22.18;100.00
65190;BME280;51777;53.570;9.984;2023-06-26T02:02:57;101069.28;;;22.22;100.00
65190;BME280;51777;53.570;9.984;2023-06-26T02:05:23;101065.88;;;22.15;100.00
65190;BME280;51777;53.570;9.984;2023-06-26T02:07:49;101056.22;;;22.09;100.00
65190;BME280;51777;53.570;9.984;2023-06-26T02:10:14;101058.03;;;22.09;100.00
65190;BME280;51777;53.570;9.984;2023-06-26T02:12:40;101050.72;;;22.04;100.00
65190;BME280;51777;53.570;9.984;2023-06-26T02:15:06;101050.13;;;22.02;100.00
65190;BME280;51777;53.570;9.984;2023-06-26T02:17:32;101040.03;;;21.99;100.00
65190;BME280;51777;53.570;9.984;2023-06-26T02:19:57;101049.16;;;21.96;100.00
65190;BME280;51777;53.570;9.984;2023-06-26T02:22:22;101048.56;;;21.94;100.00
65190;BME280;51777;53.570;9.984;2023-06-26T02:24:48;101046.56;;;21.90;100.00
65190;BME280;51777;53.570;9.984;2023-06-26T02:27:13;101040.72;;;21.88;100.00
65190;BME280;51777;53.570;9.984;2023-06-26T02:29:40;101040.75;;;21.81;100.00
65190;BME280;51777;53.570;9.984;2023-06-26T02:32:06;101044.03;;;21.77;100.00
65190;BME280;51777;53.570;9.984;2023-06-26T02:34:31;101038.38;;;21.73;100.00
65190;BME280;51777;53.570;9.984;2023-06-26T02:36:57;101029.88;;;21.71;100.00
65190;BME280;51777;53.570;9.984;2023-06-26T02:39:24;101028.66;;;21.74;100.00
65190;BME280;51777;53.570;9.984;2023-06-26T02:41:49;101028.25;;;21.70;100.00
65190;BME280;51777;53.570;9.984;2023-06-26T02:44:14;101023.41;;;21.67;100.00
65190;BME280;51777;53.570;9.984;2023-06-26T02:46:40;101021.06;;;21.59;100.00
65190;BME280;51777;53.570;9.984;2023-06-26T02:49:06;101022.25;;;21.56;100.00
65190;BME280;51777;53.570;9.984;2023-06-26T02:51:34;101017.84;;;21.50;100.00
65190;BME280;51777;53.570;9.984;2023-06-26T02:53:59;101025.16;;;21.48;100.00
65190;BME280;51777;53.570;9.984;2023-06-26T02:56:26;101023.94;;;21.44;100.00
65190;BME280;51777;53.570;9.984;2023-06-26T02:58:57;101019.69;;;21.43;100.00
65190;BME280;51777;53.570;9.984;2023-06-26T03:01:22;101019.53;;;21.38;100.00
65190;BME280;51777;53.570;9.984;2023-06-26T03:03:48;101010.44;;;21.34;100.00
65190;BME280;51777;53.570;9.984;2023-06-26T03:06:14;101010.03;;;21.30;100.00
65190;BME280;51777;53.570;9.984;2023-06-26T03:08:40;101017.13;;;21.30;100.00
65190;BME280;51777;53.570;9.984;2023-06-26T03:11:07;101008.66;;;21.28;100.00
65190;BME280;51777;53.570;9.984;2023-06-26T03:13:33;101006.22;;;21.26;100.00
65190;BME280;51777;53.570;9.984;2023-06-26T03:15:59;101006.22;;;21.26;100.00
65190;BME280;51777;53.570;9.984;2023-06-26T03:18:24;101008.06;;;21.26;100.00
65190;BME280;51777;53.570;9.984;2023-06-26T03:20:49;101001.78;;;21.27;100.00
65190;BME280;51777;53.570;9.984;2023-06-26T03:23:15;101009.66;;;21.20;100.00
65190;BME280;51777;53.570;9.984;2023-06-26T03:25:40;101006.63;;;21.23;100.00
65190;BME280;51777;53.570;9.984;2023-06-26T03:28:06;101001.97;;;21.25;100.00
65190;BME280;51777;53.570;9.984;2023-06-26T03:30:31;101003.78;;;21.25;100.00
65190;BME280;51777;53.570;9.984;2023-06-26T03:32:56;101001.34;;;21.30;100.00
65190;BME280;51777;53.570;9.984;2023-06-26T03:35:22;101009.66;;;21.33;100.00
65190;BME280;51777;53.570;9.984;2023-06-26T03:37:49;100999.94;;;21.34;100.00
65190;BME280;51777;53.570;9.984;2023-06-26T03:40:14;100996.50;;;21.33;100.00
65190;BME280;51777;53.570;9.984;2023-06-26T03:42:40;100993.03;;;21.33;100.00
65190;BME280;51777;53.570;9.984;2023-06-26T03:45:05;100997.47;;;21.32;100.00
65190;BME280;51777;53.570;9.984;2023-06-26T03:47:31;100992.03;;;21.34;100.00
65190;BME280;51777;53.570;9.984;2023-06-26T03:49:56;100986.78;;;21.34;100.00
65190;BME280;51777;53.570;9.984;2023-06-26T03:52:22;100979.47;;;21.36;100.00
65190;BME280;51777;53.570;9.984;2023-06-26T03:54:47;100980.06;;;21.38;100.00
65190;BME280;51777;53.570;9.984;2023-06-26T03:57:14;100980.06;;;21.38;100.00
65190;BME280;51777;53.570;9.984;2023-06-26T03:59:39;100977.81;;;21.42;100.00
65190;BME280;51777;53.570;9.984;2023-06-26T04:02:04;100971.31;;;21.44;100.00
65190;BME280;51777;53.570;9.984;2023-06-26T04:04:30;100976.97;;;21.48;100.00
65190;BME280;51777;53.570;9.984;2023-06-26T04:06:55;100977.94;;;21.53;100.00
65190;BME280;51777;53.570;9.984;2023-06-26T04:09:22;100977.94;;;21.53;100.00
65190;BME280;51777;53.570;9.984;2023-06-26T04:11:47;100977.94;;;21.53;100.00
65190;BME280;51777;53.570;9.984;2023-06-26T04:14:13;100970.06;;;21.53;100.00
65190;BME280;51777;53.570;9.984;2023-06-26T04:16:38;100969.63;;;21.56;100.00
65190;BME280;51777;53.570;9.984;2023-06-26T04:19:04;100965.59;;;21.54;100.00
65190;BME280;51777;53.570;9.984;2023-06-26T04:21:30;100965.97;;;21.57;100.00
65190;BME280;51777;53.570;9.984;2023-06-26T04:23:56;100961.72;;;21.63;100.00
65190;BME280;51777;53.570;9.984;2023-06-26T04:26:21;100958.06;;;21.89;100.00
65190;BME280;51777;53.570;9.984;2023-06-26T04:28:47;100960.38;;;22.04;100.00
65190;BME280;51777;53.570;9.984;2023-06-26T04:31:13;100948.22;;;22.09;100.00
65190;BME280;51777;53.570;9.984;2023-06-26T04:33:39;100949.31;;;21.95;100.00
65190;BME280;51777;53.570;9.984;2023-06-26T04:36:04;100954.41;;;21.90;100.00
65190;BME280;51777;53.570;9.984;2023-06-26T04:38:33;100945.72;;;21.89;100.00
65190;BME280;51777;53.570;9.984;2023-06-26T04:41:00;100946.66;;;21.95;100.00
65190;BME280;51777;53.570;9.984;2023-06-26T04:43:25;100948.31;;;21.96;100.00
65190;BME280;51777;53.570;9.984;2023-06-26T04:45:51;100942.81;;;21.97;100.00
65190;BME280;51777;53.570;9.984;2023-06-26T04:48:16;100934.84;;;22.04;100.00
65190;BME280;51777;53.570;9.984;2023-06-26T04:50:42;100942.97;;;22.09;100.00
65190;BME280;51777;53.570;9.984;2023-06-26T04:53:07;100938.28;;;22.11;100.00
65190;BME280;51777;53.570;9.984;2023-06-26T04:55:33;100940.91;;;22.11;100.00
65190;BME280;51777;53.570;9.984;2023-06-26T04:57:58;100927.88;;;22.16;100.00
65190;BME280;51777;53.570;9.984;2023-06-26T05:00:23;100924.88;;;22.13;100.00
65190;BME280;51777;53.570;9.984;2023-06-26T05:02:50;100928.91;;;22.15;100.00
65190;BME280;51777;53.570;9.984;2023-06-26T05:05:24;100933.16;;;22.16;100.00
65190;BME280;51777;53.570;9.984;2023-06-26T05:07:53;100929.44;;;22.24;100.00
65190;BME280;51777;53.570;9.984;2023-06-26T05:10:22;100926.81;;;22.24;100.00
65190;BME280;51777;53.570;9.984;2023-06-26T05:12:48;100921.53;;;22.24;100.00
65190;BME280;51777;53.570;9.984;2023-06-26T05:15:13;100925.69;;;22.32;100.00
65190;BME280;51777;53.570;9.984;2023-06-26T05:17:39;100922.78;;;22.40;100.00
65190;BME280;51777;53.570;9.984;2023-06-26T05:20:04;100923.94;;;22.44;100.00
65190;BME280;51777;53.570;9.984;2023-06-26T05:22:32;100913.94;;;22.52;100.00
65190;BME280;51777;53.570;9.984;2023-06-26T05:24:58;100910.84;;;22.55;100.00
65190;BME280;51777;53.570;9.984;2023-06-26T05:27:26;100909.19;;;22.61;100.00
65190;BME280;51777;53.570;9.984;2023-06-26T05:29:51;100906.91;;;22.65;100.00
65190;BME280;51777;53.570;9.984;2023-06-26T05:32:17;100901.19;;;22.68;100.00
65190;BME280;51777;53.570;9.984;2023-06-26T05:34:46;100892.97;;;22.76;100.00
65190;BME280;51777;53.570;9.984;2023-06-26T05:37:15;100893.09;;;22.81;100.00
65190;BME280;51777;53.570;9.984;2023-06-26T05:39:42;100889.84;;;22.85;100.00
65190;BME280;51777;53.570;9.984;2023-06-26T05:42:08;100888.16;;;22.91;100.00
65190;BME280;51777;53.570;9.984;2023-06-26T05:44:33;100889.09;;;22.97;100.00
65190;BME280;51777;53.570;9.984;2023-06-26T05:46:59;100891.78;;;23.08;100.00
65190;BME280;51777;53.570;9.984;2023-06-26T05:49:24;100884.91;;;23.19;100.00
65190;BME280;51777;53.570;9.984;2023-06-26T05:51:49;100883.22;;;23.25;100.00
65190;BME280;51777;53.570;9.984;2023-06-26T05:54:15;100892.84;;;23.31;100.00
65190;BME280;51777;53.570;9.984;2023-06-26T05:56:41;100882.22;;;23.37;100.00
65190;BME280;51777;53.570;9.984;2023-06-26T05:59:07;100881.09;;;23.45;100.00
65190;BME280;51777;53.570;9.984;2023-06-26T06:01:33;100888.22;;;23.44;100.00
65190;BME280;51777;53.570;9.984;2023-06-26T06:03:59;100878.34;;;23.52;100.00
65190;BME280;51777;53.570;9.984;2023-06-26T06:06:24;100872.38;;;23.56;100.00
65190;BME280;51777;53.570;9.984;2023-06-26T06:08:50;100867.25;;;23.61;100.00
65190;BME280;51777;53.570;9.984;2023-06-26T06:11:15;100867.72;;;23.70;100.00
65190;BME280;51777;53.570;9.984;2023-06-26T06:13:40;100878.50;;;23.80;100.00
65190;BME280;51777;53.570;9.984;2023-06-26T06:16:06;100873.34;;;23.85;100.00
65190;BME280;51777;53.570;9.984;2023-06-26T06:18:31;100869.53;;;23.93;100.00
65190;BME280;51777;53.570;9.984;2023-06-26T06:21:00;100872.56;;;23.85;100.00
65190;BME280;51777;53.570;9.984;2023-06-26T06:23:27;100869.34;;;23.83;100.00
65190;BME280;51777;53.570;9.984;2023-06-26T06:25:52;100869.34;;;23.94;100.00
65190;BME280;51777;53.570;9.984;2023-06-26T06:28:18;100870.56;;;24.03;100.00
65190;BME280;51777;53.570;9.984;2023-06-26T06:30:43;100859.19;;;24.15;100.00
65190;BME280;51777;53.570;9.984;2023-06-26T06:33:08;100858.41;;;24.14;100.00
65190;BME280;51777;53.570;9.984;2023-06-26T06:35:34;100854.72;;;24.15;100.00
65190;BME280;51777;53.570;9.984;2023-06-26T06:37:59;100857.09;;;24.28;100.00
65190;BME280;51777;53.570;9.984;2023-06-26T06:40:25;100855.84;;;24.43;100.00
65190;BME280;51777;53.570;9.984;2023-06-26T06:42:51;100847.69;;;24.44;100.00
65190;BME280;51777;53.570;9.984;2023-06-26T06:45:16;100842.53;;;24.38;100.00
65190;BME280;51777;53.570;9.984;2023-06-26T06:47:41;100837.38;;;24.31;100.00
65190;BME280;51777;53.570;9.984;2023-06-26T06:50:07;100836.53;;;24.42;100.00
65190;BME280;51777;53.570;9.984;2023-06-26T06:52:39;100837.75;;;24.51;100.00
65190;BME280;51777;53.570;9.984;2023-06-26T06:55:06;100830.16;;;24.55;100.00
65190;BME280;51777;53.570;9.984;2023-06-26T06:57:35;100820.03;;;24.64;100.00
65190;BME280;51777;53.570;9.984;2023-06-26T07:00:07;100820.56;;;24.66;100.00
65190;BME280;51777;53.570;9.984;2023-06-26T07:02:41;100825.03;;;24.77;100.00
65190;BME280;51777;53.570;9.984;2023-06-26T07:05:08;100838.50;;;24.92;100.00
65190;BME280;51777;53.570;9.984;2023-06-26T07:07:35;100829.03;;;25.08;100.00
65190;BME280;51777;53.570;9.984;2023-06-26T07:10:12;100821.97;;;25.13;100.00
65190;BME280;51777;53.570;9.984;2023-06-26T07:12:38;100821.34;;;25.23;100.00
65190;BME280;51777;53.570;9.984;2023-06-26T07:15:05;100818.78;;;25.28;100.00
65190;BME280;51777;53.570;9.984;2023-06-26T07:17:32;100820.38;;;25.29;100.00
65190;BME280;51777;53.570;9.984;2023-06-26T07:19:58;100820.78;;;25.38;100.00
65190;BME280;51777;53.570;9.984;2023-06-26T07:22:24;100817.97;;;25.44;100.00
65190;BME280;51777;53.570;9.984;2023-06-26T07:24:49;100814.19;;;25.57;100.00
65190;BME280;51777;53.570;9.984;2023-06-26T07:27:15;100817.47;;;25.64;100.00
65190;BME280;51777;53.570;9.984;2023-06-26T07:29:41;100812.59;;;25.73;100.00
65190;BME280;51777;53.570;9.984;2023-06-26T07:32:07;100821.66;;;25.77;100.00
65190;BME280;51777;53.570;9.984;2023-06-26T07:34:32;100823.03;;;26.01;100.00
65190;BME280;51777;53.570;9.984;2023-06-26T07:36:58;100830.75;;;26.25;100.00
65190;BME280;51777;53.570;9.984;2023-06-26T07:39:23;100819.78;;;26.38;100.00
65190;BME280;51777;53.570;9.984;2023-06-26T07:41:48;100822.47;;;26.65;100.00
65190;BME280;51777;53.570;9.984;2023-06-26T07:44:14;100831.31;;;26.76;100.00
65190;BME280;51777;53.570;9.984;2023-06-26T07:46:39;100821.19;;;27.00;100.00
65190;BME280;51777;53.570;9.984;2023-06-26T07:49:05;100825.59;;;27.16;100.00
65190;BME280;51777;53.570;9.984;2023-06-26T07:51:30;100825.16;;;27.24;100.00
65190;BME280;51777;53.570;9.984;2023-06-26T07:53:55;100818.50;;;27.64;100.00
65190;BME280;51777;53.570;9.984;2023-06-26T07:56:21;100825.06;;;27.88;100.00
65190;BME280;51777;53.570;9.984;2023-06-26T07:58:46;100831.50;;;28.02;100.00
65190;BME280;51777;53.570;9.984;2023-06-26T08:01:11;100818.28;;;28.23;100.00
65190;BME280;51777;53.570;9.984;2023-06-26T08:03:37;100819.97;;;28.34;100.00
65190;BME280;51777;53.570;9.984;2023-06-26T08:06:02;100822.69;;;28.59;100.00
65190;BME280;51777;53.570;9.984;2023-06-26T08:08:28;100814.72;;;28.70;100.00
65190;BME280;51777;53.570;9.984;2023-06-26T08:10:54;100815.56;;;29.06;100.00
65190;BME280;51777;53.570;9.984;2023-06-26T08:13:19;100805.16;;;29.24;100.00
65190;BME280;51777;53.570;9.984;2023-06-26T08:15:45;100801.47;;;29.15;100.00
65190;BME280;51777;53.570;9.984;2023-06-26T08:18:10;100797.66;;;29.67;100.00
65190;BME280;51777;53.570;9.984;2023-06-26T08:20:36;100798.91;;;29.95;100.00
65190;BME280;51777;53.570;9.984;2023-06-26T08:23:04;100786.69;;;30.83;100.00
65190;BME280;51777;53.570;9.984;2023-06-26T08:25:29;100795.47;;;31.70;100.00
65190;BME280;51777;53.570;9.984;2023-06-26T08:27:54;100803.38;;;32.98;100.00
65190;BME280;51777;53.570;9.984;2023-06-26T08:30:20;100806.69;;;33.97;100.00
65190;BME280;51777;53.570;9.984;2023-06-26T08:32:46;100804.59;;;34.43;100.00
65190;BME280;51777;53.570;9.984;2023-06-26T08:35:11;100823.25;;;36.35;100.00
65190;BME280;51777;53.570;9.984;2023-06-26T08:37:37;100818.31;;;35.00;100.00
65190;BME280;51777;53.570;9.984;2023-06-26T08:40:03;100814.84;;;33.50;100.00
65190;BME280;51777;53.570;9.984;2023-06-26T08:42:29;100810.66;;;31.80;100.00
65190;BME280;51777;53.570;9.984;2023-06-26T08:44:54;100818.09;;;31.30;100.00
65190;BME280;51777;53.570;9.984;2023-06-26T08:47:20;100809.09;;;30.43;100.00
65190;BME280;51777;53.570;9.984;2023-06-26T08:50:01;100818.22;;;30.31;100.00
65190;BME280;51777;53.570;9.984;2023-06-26T08:52:33;100843.94;;;29.97;100.00
65190;BME280;51777;53.570;9.984;2023-06-26T08:55:02;100843.41;;;30.10;100.00
65190;BME280;51777;53.570;9.984;2023-06-26T08:57:32;100865.81;;;31.08;100.00
65190;BME280;51777;53.570;9.984;2023-06-26T08:59:57;100871.19;;;32.19;100.00
65190;BME280;51777;53.570;9.984;2023-06-26T09:02:23;100865.72;;;33.04;100.00
65190;BME280;51777;53.570;9.984;2023-06-26T09:04:51;100877.72;;;34.40;100.00
65190;BME280;51777;53.570;9.984;2023-06-26T09:07:16;100885.34;;;34.61;100.00
65190;BME280;51777;53.570;9.984;2023-06-26T09:09:44;100892.28;;;34.12;100.00
65190;BME280;51777;53.570;9.984;2023-06-26T09:12:09;100882.41;;;33.01;100.00
65190;BME280;51777;53.570;9.984;2023-06-26T09:14:37;100884.16;;;33.84;100.00
65190;BME280;51777;53.570;9.984;2023-06-26T09:17:03;100879.59;;;33.71;100.00
65190;BME280;51777;53.570;9.984;2023-06-26T09:19:28;100893.88;;;34.63;100.00
65190;BME280;51777;53.570;9.984;2023-06-26T09:21:54;100908.53;;;34.29;100.00
65190;BME280;51777;53.570;9.984;2023-06-26T09:24:21;100914.84;;;34.11;100.00
65190;BME280;51777;53.570;9.984;2023-06-26T09:26:47;100911.41;;;35.19;100.00
65190;BME280;51777;53.570;9.984;2023-06-26T09:29:13;100915.31;;;34.27;100.00
65190;BME280;51777;53.570;9.984;2023-06-26T09:31:40;100906.88;;;32.76;100.00
65190;BME280;51777;53.570;9.984;2023-06-26T09:34:05;100902.13;;;31.48;100.00
65190;BME280;51777;53.570;9.984;2023-06-26T09:36:32;100894.88;;;30.75;100.00
65190;BME280;51777;53.570;9.984;2023-06-26T09:39:05;100895.91;;;30.20;100.00
65190;BME280;51777;53.570;9.984;2023-06-26T09:41:34;100911.47;;;29.67;100.00
65190;BME280;51777;53.570;9.984;2023-06-26T09:44:02;100921.03;;;29.22;100.00
65190;BME280;51777;53.570;9.984;2023-06-26T09:46:28;100921.81;;;29.07;100.00
65190;BME280;51777;53.570;9.984;2023-06-26T09:48:58;100936.56;;;28.57;100.00
65190;BME280;51777;53.570;9.984;2023-06-26T09:51:24;100914.13;;;28.38;100.00
65190;BME280;51777;53.570;9.984;2023-06-26T09:53:49;100923.91;;;28.27;100.00
65190;BME280;51777;53.570;9.984;2023-06-26T09:56:16;100919.81;;;28.15;100.00
65190;BME280;51777;53.570;9.984;2023-06-26T09:58:45;100926.16;;;28.03;100.00
65190;BME280;51777;53.570;9.984;2023-06-26T10:01:11;100938.25;;;27.84;100.00
65190;BME280;51777;53.570;9.984;2023-06-26T10:03:37;100935.97;;;27.34;100.00
65190;BME280;51777;53.570;9.984;2023-06-26T10:06:02;100924.41;;;27.18;100.00
65190;BME280;51777;53.570;9.984;2023-06-26T10:08:29;100934.78;;;26.98;100.00
65190;BME280;51777;53.570;9.984;2023-06-26T10:10:57;100936.47;;;26.38;100.00
65190;BME280;51777;53.570;9.984;2023-06-26T10:13:27;100927.97;;;26.19;100.00
65190;BME280;51777;53.570;9.984;2023-06-26T10:15:58;100936.63;;;26.15;100.00
65190;BME280;51777;53.570;9.984;2023-06-26T10:18:27;100960.06;;;25.84;100.00
65190;BME280;51777;53.570;9.984;2023-06-26T10:20:55;100977.97;;;25.48;100.00
65190;BME280;51777;53.570;9.984;2023-06-26T10:23:23;101019.13;;;24.87;100.00
65190;BME280;51777;53.570;9.984;2023-06-26T10:25:51;101016.06;;;24.32;100.00
65190;BME280;51777;53.570;9.984;2023-06-26T10:28:18;101018.19;;;24.00;100.00
65190;BME280;51777;53.570;9.984;2023-06-26T10:30:46;101004.31;;;23.63;100.00
65190;BME280;51777;53.570;9.984;2023-06-26T10:33:13;101001.50;;;23.28;100.00
65190;BME280;51777;53.570;9.984;2023-06-26T10:35:45;100988.06;;;22.99;100.00
65190;BME280;51777;53.570;9.984;2023-06-26T10:38:11;101007.72;;;22.78;100.00
65190;BME280;51777;53.570;9.984;2023-06-26T10:40:45;101001.41;;;22.43;100.00
65190;BME280;51777;53.570;9.984;2023-06-26T10:43:11;100982.72;;;22.26;100.00
65190;BME280;51777;53.570;9.984;2023-06-26T10:45:43;100989.19;;;22.48;100.00
65190;BME280;51777;53.570;9.984;2023-06-26T10:48:09;100989.41;;;22.65;100.00
65190;BME280;51777;53.570;9.984;2023-06-26T10:50:34;101001.06;;;22.76;100.00
65190;BME280;51777;53.570;9.984;2023-06-26T10:53:07;101004.59;;;22.70;100.00
65190;BME280;51777;53.570;9.984;2023-06-26T10:55:33;101001.34;;;22.68;100.00
65190;BME280;51777;53.570;9.984;2023-06-26T10:57:59;101008.28;;;22.44;100.00
65190;BME280;51777;53.570;9.984;2023-06-26T11:00:25;101007.25;;;22.70;100.00
65190;BME280;51777;53.570;9.984;2023-06-26T11:02:51;101022.72;;;23.21;100.00
65190;BME280;51777;53.570;9.984;2023-06-26T11:05:28;101022.13;;;23.79;100.00
65190;BME280;51777;53.570;9.984;2023-06-26T11:08:09;101031.19;;;24.95;100.00
65190;BME280;51777;53.570;9.984;2023-06-26T11:10:53;101035.16;;;25.78;100.00
65190;BME280;51777;53.570;9.984;2023-06-26T11:13:20;101051.72;;;26.69;100.00
65190;BME280;51777;53.570;9.984;2023-06-26T11:15:47;101050.88;;;26.85;100.00
65190;BME280;51777;53.570;9.984;2023-06-26T11:18:14;101051.91;;;26.12;100.00
65190;BME280;51777;53.570;9.984;2023-06-26T11:20:40;101049.63;;;26.71;100.00
65190;BME280;51777;53.570;9.984;2023-06-26T11:23:08;101055.22;;;26.91;100.00
65190;BME280;51777;53.570;9.984;2023-06-26T11:25:38;101063.81;;;27.96;100.00
65190;BME280;51777;53.570;9.984;2023-06-26T11:28:04;101068.88;;;28.72;100.00
65190;BME280;51777;53.570;9.984;2023-06-26T11:30:31;101076.34;;;28.75;100.00
65190;BME280;51777;53.570;9.984;2023-06-26T11:33:26;101091.03;;;28.83;100.00
65190;BME280;51777;53.570;9.984;2023-06-26T11:35:55;101093.00;;;28.23;100.00
65190;BME280;51777;53.570;9.984;2023-06-26T11:38:20;101087.88;;;27.79;100.00
65190;BME280;51777;53.570;9.984;2023-06-26T11:40:48;101089.47;;;26.93;100.00
65190;BME280;51777;53.570;9.984;2023-06-26T11:43:13;101099.19;;;27.70;100.00
65190;BME280;51777;53.570;9.984;2023-06-26T11:45:40;101104.09;;;28.84;100.00
65190;BME280;51777;53.570;9.984;2023-06-26T11:48:05;101108.81;;;29.24;100.00
65190;BME280;51777;53.570;9.984;2023-06-26T11:50:36;101109.13;;;28.81;100.00
65190;BME280;51777;53.570;9.984;2023-06-26T11:53:02;101125.88;;;29.18;100.00
65190;BME280;51777;53.570;9.984;2023-06-26T11:55:40;101122.38;;;28.33;100.00
65190;BME280;51777;53.570;9.984;2023-06-26T11:58:06;101118.84;;;27.96;100.00
65190;BME280;51777;53.570;9.984;2023-06-26T12:00:32;101123.59;;;26.84;100.00
65190;BME280;51777;53.570;9.984;2023-06-26T12:03:04;101133.25;;;26.74;100.00
65190;BME280;51777;53.570;9.984;2023-06-26T12:05:30;101140.09;;;26.70;100.00
65190;BME280;51777;53.570;9.984;2023-06-26T12:07:56;101133.59;;;26.44;100.00
65190;BME280;51777;53.570;9.984;2023-06-26T12:10:22;101121.84;;;26.56;100.00
65190;BME280;51777;53.570;9.984;2023-06-26T12:12:48;101129.78;;;26.73;100.00
65190;BME280;51777;53.570;9.984;2023-06-26T12:15:15;101120.41;;;26.49;100.00
65190;BME280;51777;53.570;9.984;2023-06-26T12:17:41;101125.63;;;26.60;100.00
65190;BME280;51777;53.570;9.984;2023-06-26T12:20:26;101130.19;;;26.48;100.00
65190;BME280;51777;53.570;9.984;2023-06-26T12:22:52;101129.50;;;27.08;100.00
65190;BME280;51777;53.570;9.984;2023-06-26T12:25:24;101141.97;;;27.95;100.00
65190;BME280;51777;53.570;9.984;2023-06-26T12:27:49;101139.19;;;27.63;100.00
65190;BME280;51777;53.570;9.984;2023-06-26T12:30:16;101142.81;;;27.74;100.00
65190;BME280;51777;53.570;9.984;2023-06-26T12:32:47;101149.00;;;28.71;100.00
65190;BME280;51777;53.570;9.984;2023-06-26T12:35:13;101157.56;;;29.15;100.00
65190;BME280;51777;53.570;9.984;2023-06-26T12:37:38;101157.63;;;30.44;100.00
65190;BME280;51777;53.570;9.984;2023-06-26T12:40:18;101165.63;;;30.18;100.00